sensor_id;sensor_type;location;lat;lon;timestamp;P1;durP1;ratioP1;P2;durP2;ratioP2
5967;SDS011;3010;51.028;4.170;2023-03-01T00:01:23;12.57;;;8.63;;
5967;SDS011;3010;51.028;4.170;2023-03-01T00:03:48;10.70;;;8.73;;
5967;SDS011;3010;51.028;4.170;2023-03-01T00:06:15;11.87;;;8.37;;
5967;SDS011;3010;51.028;4.170;2023-03-01T00:08:42;9.83;;;8.27;;
5967;SDS011;3010;51.028;4.170;2023-03-01T00:13:47;9.50;;;8.50;;
5967;SDS011;3010;51.028;4.170;2023-03-01T00:16:14;9.80;;;8.40;;
5967;SDS011;3010;51.028;4.170;2023-03-01T00:18:40;12.03;;;8.57;;
5967;SDS011;3010;51.028;4.170;2023-03-01T00:21:06;10.80;;;8.63;;
5967;SDS011;3010;51.028;4.170;2023-03-01T00:23:33;9.63;;;8.53;;
5967;SDS011;3010;51.028;4.170;2023-03-01T00:25:59;9.70;;;8.70;;
5967;SDS011;3010;51.028;4.170;2023-03-01T00:28:26;10.07;;;8.23;;
5967;SDS011;3010;51.028;4.170;2023-03-01T00:30:53;9.20;;;8.00;;
5967;SDS011;3010;51.028;4.170;2023-03-01T00:33:19;10.33;;;7.90;;
5967;SDS011;3010;51.028;4.170;2023-03-01T00:35:46;9.57;;;8.77;;
5967;SDS011;3010;51.028;4.170;2023-03-01T00:38:12;10.73;;;9.65;;
5967;SDS011;3010;51.028;4.170;2023-03-01T00:40:39;10.50;;;9.50;;
5967;SDS011;3010;51.028;4.170;2023-03-01T00:43:06;11.87;;;8.83;;
5967;SDS011;3010;51.028;4.170;2023-03-01T00:45:32;10.30;;;9.30;;
5967;SDS011;3010;51.028;4.170;2023-03-01T00:47:59;10.70;;;9.13;;
5967;SDS011;3010;51.028;4.170;2023-03-01T00:50:25;13.18;;;10.80;;
5967;SDS011;3010;51.028;4.170;2023-03-01T00:52:53;12.20;;;10.67;;
5967;SDS011;3010;51.028;4.170;2023-03-01T00:55:21;10.23;;;9.23;;
5967;SDS011;3010;51.028;4.170;2023-03-01T00:57:48;11.80;;;8.57;;
5967;SDS011;3010;51.028;4.170;2023-03-01T01:00:14;9.50;;;8.50;;
5967;SDS011;3010;51.028;4.170;2023-03-01T01:02:41;12.25;;;11.02;;
5967;SDS011;3010;51.028;4.170;2023-03-01T01:05:07;13.37;;;9.17;;
5967;SDS011;3010;51.028;4.170;2023-03-01T01:07:34;11.03;;;8.90;;
5967;SDS011;3010;51.028;4.170;2023-03-01T01:10:00;10.47;;;9.47;;
5967;SDS011;3010;51.028;4.170;2023-03-01T01:12:27;13.57;;;9.27;;
5967;SDS011;3010;51.028;4.170;2023-03-01T01:14:54;11.50;;;9.73;;
5967;SDS011;3010;51.028;4.170;2023-03-01T01:17:20;12.43;;;9.57;;
5967;SDS011;3010;51.028;4.170;2023-03-01T01:19:47;9.90;;;9.10;;
5967;SDS011;3010;51.028;4.170;2023-03-01T01:22:13;11.70;;;10.57;;
5967;SDS011;3010;51.028;4.170;2023-03-01T01:24:40;13.63;;;10.17;;
5967;SDS011;3010;51.028;4.170;2023-03-01T01:27:06;12.10;;;10.88;;
5967;SDS011;3010;51.028;4.170;2023-03-01T01:29:33;10.97;;;9.87;;
5967;SDS011;3010;51.028;4.170;2023-03-01T01:32:00;11.30;;;9.27;;
5967;SDS011;3010;51.028;4.170;2023-03-01T01:34:26;10.10;;;9.00;;
5967;SDS011;3010;51.028;4.170;2023-03-01T01:36:53;10.77;;;9.30;;
5967;SDS011;3010;51.028;4.170;2023-03-01T01:39:20;10.67;;;9.60;;
5967;SDS011;3010;51.028;4.170;2023-03-01T01:41:46;11.00;;;9.50;;
5967;SDS011;3010;51.028;4.170;2023-03-01T01:44:14;11.10;;;9.07;;
5967;SDS011;3010;51.028;4.170;2023-03-01T01:52:02;10.10;;;9.20;;
5967;SDS011;3010;51.028;4.170;2023-03-01T01:54:34;12.87;;;9.90;;
5967;SDS011;3010;51.028;4.170;2023-03-01T01:57:12;20.80;;;9.70;;
5967;SDS011;3010;51.028;4.170;2023-03-01T01:59:40;11.23;;;8.87;;
5967;SDS011;3010;51.028;4.170;2023-03-01T02:02:07;10.33;;;8.93;;
5967;SDS011;3010;51.028;4.170;2023-03-01T02:04:34;10.57;;;9.10;;
5967;SDS011;3010;51.028;4.170;2023-03-01T02:07:01;10.30;;;9.33;;
5967;SDS011;3010;51.028;4.170;2023-03-01T02:09:29;12.23;;;9.83;;
5967;SDS011;3010;51.028;4.170;2023-03-01T02:11:56;12.13;;;9.17;;
5967;SDS011;3010;51.028;4.170;2023-03-01T02:14:22;11.87;;;9.33;;
5967;SDS011;3010;51.028;4.170;2023-03-01T02:16:49;13.40;;;9.53;;
5967;SDS011;3010;51.028;4.170;2023-03-01T02:19:22;10.93;;;9.47;;
5967;SDS011;3010;51.028;4.170;2023-03-01T02:21:49;11.63;;;9.43;;
5967;SDS011;3010;51.028;4.170;2023-03-01T02:24:20;10.90;;;9.73;;
5967;SDS011;3010;51.028;4.170;2023-03-01T02:26:48;12.55;;;11.25;;
5967;SDS011;3010;51.028;4.170;2023-03-01T02:29:13;11.70;;;10.17;;
5967;SDS011;3010;51.028;4.170;2023-03-01T02:31:40;14.03;;;9.60;;
5967;SDS011;3010;51.028;4.170;2023-03-01T02:34:11;10.03;;;9.03;;
5967;SDS011;3010;51.028;4.170;2023-03-01T02:36:40;11.40;;;9.43;;
5967;SDS011;3010;51.028;4.170;2023-03-01T02:39:06;12.10;;;9.37;;
5967;SDS011;3010;51.028;4.170;2023-03-01T02:41:34;12.82;;;11.52;;
5967;SDS011;3010;51.028;4.170;2023-03-01T02:43:58;10.53;;;9.43;;
5967;SDS011;3010;51.028;4.170;2023-03-01T02:46:25;13.93;;;9.87;;
5967;SDS011;3010;51.028;4.170;2023-03-01T02:48:52;10.37;;;9.17;;
5967;SDS011;3010;51.028;4.170;2023-03-01T02:56:39;12.23;;;9.80;;
5967;SDS011;3010;51.028;4.170;2023-03-01T02:59:05;11.53;;;9.43;;
5967;SDS011;3010;51.028;4.170;2023-03-01T03:01:32;12.60;;;11.30;;
5967;SDS011;3010;51.028;4.170;2023-03-01T03:03:59;13.20;;;10.67;;
5967;SDS011;3010;51.028;4.170;2023-03-01T03:06:25;10.77;;;9.70;;
5967;SDS011;3010;51.028;4.170;2023-03-01T03:08:52;13.93;;;10.17;;
5967;SDS011;3010;51.028;4.170;2023-03-01T03:11:18;13.10;;;10.23;;
5967;SDS011;3010;51.028;4.170;2023-03-01T03:13:45;12.90;;;9.53;;
5967;SDS011;3010;51.028;4.170;2023-03-01T03:16:11;11.13;;;9.60;;
5967;SDS011;3010;51.028;4.170;2023-03-01T03:18:38;10.47;;;9.37;;
5967;SDS011;3010;51.028;4.170;2023-03-01T03:21:08;10.83;;;9.40;;
5967;SDS011;3010;51.028;4.170;2023-03-01T03:23:34;12.93;;;9.43;;
5967;SDS011;3010;51.028;4.170;2023-03-01T03:26:00;11.60;;;9.17;;
5967;SDS011;3010;51.028;4.170;2023-03-01T03:28:27;14.80;;;9.73;;
5967;SDS011;3010;51.028;4.170;2023-03-01T03:30:53;10.27;;;9.07;;
5967;SDS011;3010;51.028;4.170;2023-03-01T03:33:20;12.80;;;9.23;;
5967;SDS011;3010;51.028;4.170;2023-03-01T03:35:47;12.40;;;11.10;;
5967;SDS011;3010;51.028;4.170;2023-03-01T03:38:14;12.30;;;10.95;;
5967;SDS011;3010;51.028;4.170;2023-03-01T03:40:43;12.02;;;10.52;;
5967;SDS011;3010;51.028;4.170;2023-03-01T03:43:10;13.48;;;11.88;;
5967;SDS011;3010;51.028;4.170;2023-03-01T03:45:36;13.17;;;9.77;;
5967;SDS011;3010;51.028;4.170;2023-03-01T03:48:03;13.00;;;10.70;;
5967;SDS011;3010;51.028;4.170;2023-03-01T03:50:29;11.40;;;9.97;;
5967;SDS011;3010;51.028;4.170;2023-03-01T03:52:55;9.90;;;8.90;;
5967;SDS011;3010;51.028;4.170;2023-03-01T03:55:22;11.73;;;9.40;;
5967;SDS011;3010;51.028;4.170;2023-03-01T03:57:48;10.53;;;9.43;;
5967;SDS011;3010;51.028;4.170;2023-03-01T04:00:18;10.97;;;9.03;;
5967;SDS011;3010;51.028;4.170;2023-03-01T04:02:44;12.43;;;11.12;;
5967;SDS011;3010;51.028;4.170;2023-03-01T04:05:11;10.83;;;9.83;;
5967;SDS011;3010;51.028;4.170;2023-03-01T04:07:38;10.70;;;9.03;;
5967;SDS011;3010;51.028;4.170;2023-03-01T04:10:04;10.50;;;8.93;;
5967;SDS011;3010;51.028;4.170;2023-03-01T04:12:30;10.17;;;9.03;;
5967;SDS011;3010;51.028;4.170;2023-03-01T04:14:57;11.50;;;8.97;;
5967;SDS011;3010;51.028;4.170;2023-03-01T04:17:24;13.33;;;9.50;;
5967;SDS011;3010;51.028;4.170;2023-03-01T04:19:50;12.37;;;9.37;;
5967;SDS011;3010;51.028;4.170;2023-03-01T04:22:17;12.70;;;9.67;;
5967;SDS011;3010;51.028;4.170;2023-03-01T04:24:44;10.40;;;9.27;;
5967;SDS011;3010;51.028;4.170;2023-03-01T04:27:10;14.87;;;9.50;;
5967;SDS011;3010;51.028;4.170;2023-03-01T04:29:36;10.53;;;9.43;;
5967;SDS011;3010;51.028;4.170;2023-03-01T04:32:03;11.17;;;9.43;;
5967;SDS011;3010;51.028;4.170;2023-03-01T04:34:30;10.50;;;9.50;;
5967;SDS011;3010;51.028;4.170;2023-03-01T04:36:56;11.10;;;9.37;;
5967;SDS011;3010;51.028;4.170;2023-03-01T04:39:23;10.93;;;9.50;;
5967;SDS011;3010;51.028;4.170;2023-03-01T04:41:49;10.67;;;9.60;;
5967;SDS011;3010;51.028;4.170;2023-03-01T04:44:16;11.13;;;9.10;;
5967;SDS011;3010;51.028;4.170;2023-03-01T04:46:43;12.70;;;9.13;;
5967;SDS011;3010;51.028;4.170;2023-03-01T04:49:09;10.40;;;9.27;;
5967;SDS011;3010;51.028;4.170;2023-03-01T04:51:36;11.63;;;9.50;;
5967;SDS011;3010;51.028;4.170;2023-03-01T04:54:02;10.77;;;9.73;;
5967;SDS011;3010;51.028;4.170;2023-03-01T04:56:29;13.77;;;12.13;;
5967;SDS011;3010;51.028;4.170;2023-03-01T04:58:55;13.10;;;10.13;;
5967;SDS011;3010;51.028;4.170;2023-03-01T05:01:22;13.17;;;9.93;;
5967;SDS011;3010;51.028;4.170;2023-03-01T05:03:49;12.10;;;9.97;;
5967;SDS011;3010;51.028;4.170;2023-03-01T05:06:15;12.83;;;9.30;;
5967;SDS011;3010;51.028;4.170;2023-03-01T05:08:43;12.60;;;9.83;;
5967;SDS011;3010;51.028;4.170;2023-03-01T05:11:10;11.47;;;10.20;;
5967;SDS011;3010;51.028;4.170;2023-03-01T05:13:36;13.37;;;10.30;;
5967;SDS011;3010;51.028;4.170;2023-03-01T05:16:03;12.03;;;10.00;;
5967;SDS011;3010;51.028;4.170;2023-03-01T05:18:30;12.00;;;10.23;;
5967;SDS011;3010;51.028;4.170;2023-03-01T05:21:01;14.50;;;12.45;;
5967;SDS011;3010;51.028;4.170;2023-03-01T05:23:22;13.07;;;10.43;;
5967;SDS011;3010;51.028;4.170;2023-03-01T05:25:49;11.13;;;10.03;;
5967;SDS011;3010;51.028;4.170;2023-03-01T05:28:16;12.27;;;10.00;;
5967;SDS011;3010;51.028;4.170;2023-03-01T05:30:42;11.87;;;10.27;;
5967;SDS011;3010;51.028;4.170;2023-03-01T05:33:09;12.57;;;10.07;;
5967;SDS011;3010;51.028;4.170;2023-03-01T05:35:35;13.07;;;10.07;;
5967;SDS011;3010;51.028;4.170;2023-03-01T05:38:02;12.88;;;11.52;;
5967;SDS011;3010;51.028;4.170;2023-03-01T05:40:28;12.23;;;10.63;;
5967;SDS011;3010;51.028;4.170;2023-03-01T05:42:56;15.73;;;11.07;;
5967;SDS011;3010;51.028;4.170;2023-03-01T05:45:22;11.93;;;10.10;;
5967;SDS011;3010;51.028;4.170;2023-03-01T05:47:48;11.57;;;10.10;;
5967;SDS011;3010;51.028;4.170;2023-03-01T05:50:25;12.47;;;10.37;;
5967;SDS011;3010;51.028;4.170;2023-03-01T05:52:48;16.67;;;11.27;;
5967;SDS011;3010;51.028;4.170;2023-03-01T05:55:15;14.83;;;12.20;;
5967;SDS011;3010;51.028;4.170;2023-03-01T05:57:40;12.70;;;11.13;;
5967;SDS011;3010;51.028;4.170;2023-03-01T06:00:07;16.83;;;10.60;;
5967;SDS011;3010;51.028;4.170;2023-03-01T06:02:34;16.43;;;10.40;;
5967;SDS011;3010;51.028;4.170;2023-03-01T06:05:00;17.83;;;10.40;;
5967;SDS011;3010;51.028;4.170;2023-03-01T06:07:27;14.53;;;10.77;;
5967;SDS011;3010;51.028;4.170;2023-03-01T06:09:54;13.27;;;10.23;;
5967;SDS011;3010;51.028;4.170;2023-03-01T06:12:20;12.73;;;10.07;;
5967;SDS011;3010;51.028;4.170;2023-03-01T06:14:47;14.68;;;11.90;;
5967;SDS011;3010;51.028;4.170;2023-03-01T06:17:13;15.70;;;11.83;;
5967;SDS011;3010;51.028;4.170;2023-03-01T06:19:40;12.67;;;10.50;;
5967;SDS011;3010;51.028;4.170;2023-03-01T06:22:06;16.93;;;10.77;;
5967;SDS011;3010;51.028;4.170;2023-03-01T06:24:33;17.00;;;12.40;;
5967;SDS011;3010;51.028;4.170;2023-03-01T06:27:00;14.03;;;10.80;;
5967;SDS011;3010;51.028;4.170;2023-03-01T06:29:26;16.23;;;11.57;;
5967;SDS011;3010;51.028;4.170;2023-03-01T06:31:53;16.50;;;11.30;;
5967;SDS011;3010;51.028;4.170;2023-03-01T06:34:19;15.73;;;11.07;;
5967;SDS011;3010;51.028;4.170;2023-03-01T06:36:46;14.77;;;10.83;;
5967;SDS011;3010;51.028;4.170;2023-03-01T06:39:13;12.87;;;10.67;;
5967;SDS011;3010;51.028;4.170;2023-03-01T06:41:39;13.20;;;11.03;;
5967;SDS011;3010;51.028;4.170;2023-03-01T06:44:06;16.87;;;10.70;;
5967;SDS011;3010;51.028;4.170;2023-03-01T06:46:32;14.97;;;10.60;;
5967;SDS011;3010;51.028;4.170;2023-03-01T06:48:59;15.87;;;12.07;;
5967;SDS011;3010;51.028;4.170;2023-03-01T06:51:25;17.00;;;12.23;;
5967;SDS011;3010;51.028;4.170;2023-03-01T06:53:52;17.95;;;12.60;;
5967;SDS011;3010;51.028;4.170;2023-03-01T06:56:19;17.13;;;12.00;;
5967;SDS011;3010;51.028;4.170;2023-03-01T06:58:45;19.37;;;13.57;;
5967;SDS011;3010;51.028;4.170;2023-03-01T07:01:12;12.83;;;11.27;;
5967;SDS011;3010;51.028;4.170;2023-03-01T07:03:38;12.43;;;10.70;;
5967;SDS011;3010;51.028;4.170;2023-03-01T07:06:05;12.07;;;10.07;;
5967;SDS011;3010;51.028;4.170;2023-03-01T07:08:31;15.00;;;10.30;;
5967;SDS011;3010;51.028;4.170;2023-03-01T07:10:58;15.87;;;10.27;;
5967;SDS011;3010;51.028;4.170;2023-03-01T07:13:25;16.60;;;11.10;;
5967;SDS011;3010;51.028;4.170;2023-03-01T07:15:51;16.10;;;10.23;;
5967;SDS011;3010;51.028;4.170;2023-03-01T07:18:18;16.50;;;12.65;;
5967;SDS011;3010;51.028;4.170;2023-03-01T07:20:44;15.83;;;11.50;;
5967;SDS011;3010;51.028;4.170;2023-03-01T07:23:11;15.43;;;12.88;;
5967;SDS011;3010;51.028;4.170;2023-03-01T07:25:38;11.70;;;10.37;;
5967;SDS011;3010;51.028;4.170;2023-03-01T07:28:04;14.93;;;12.73;;
5967;SDS011;3010;51.028;4.170;2023-03-01T07:30:31;16.05;;;12.63;;
5967;SDS011;3010;51.028;4.170;2023-03-01T07:32:57;13.27;;;11.23;;
5967;SDS011;3010;51.028;4.170;2023-03-01T07:35:27;12.33;;;10.37;;
5967;SDS011;3010;51.028;4.170;2023-03-01T07:37:53;14.57;;;10.50;;
5967;SDS011;3010;51.028;4.170;2023-03-01T07:40:20;13.53;;;10.20;;
5967;SDS011;3010;51.028;4.170;2023-03-01T07:42:46;13.33;;;10.57;;
5967;SDS011;3010;51.028;4.170;2023-03-01T07:45:13;17.97;;;10.50;;
5967;SDS011;3010;51.028;4.170;2023-03-01T07:47:40;12.93;;;10.70;;
5967;SDS011;3010;51.028;4.170;2023-03-01T07:50:06;12.57;;;10.87;;
5967;SDS011;3010;51.028;4.170;2023-03-01T07:52:33;15.57;;;9.90;;
5967;SDS011;3010;51.028;4.170;2023-03-01T07:55:00;16.65;;;12.40;;
5967;SDS011;3010;51.028;4.170;2023-03-01T07:57:26;11.57;;;10.13;;
5967;SDS011;3010;51.028;4.170;2023-03-01T07:59:53;12.03;;;9.93;;
5967;SDS011;3010;51.028;4.170;2023-03-01T08:02:19;12.90;;;10.60;;
5967;SDS011;3010;51.028;4.170;2023-03-01T08:04:46;12.93;;;9.67;;
5967;SDS011;3010;51.028;4.170;2023-03-01T08:07:12;13.67;;;9.60;;
5967;SDS011;3010;51.028;4.170;2023-03-01T08:09:39;14.93;;;10.13;;
5967;SDS011;3010;51.028;4.170;2023-03-01T08:12:06;12.85;;;11.00;;
5967;SDS011;3010;51.028;4.170;2023-03-01T08:14:32;12.13;;;10.37;;
5967;SDS011;3010;51.028;4.170;2023-03-01T08:16:59;16.40;;;10.13;;
5967;SDS011;3010;51.028;4.170;2023-03-01T08:19:25;12.70;;;9.17;;
5967;SDS011;3010;51.028;4.170;2023-03-01T08:21:52;15.37;;;9.57;;
5967;SDS011;3010;51.028;4.170;2023-03-01T08:24:19;13.57;;;9.70;;
5967;SDS011;3010;51.028;4.170;2023-03-01T08:26:45;9.37;;;8.37;;
5967;SDS011;3010;51.028;4.170;2023-03-01T08:29:12;14.25;;;10.80;;
5967;SDS011;3010;51.028;4.170;2023-03-01T08:31:39;11.13;;;9.70;;
5967;SDS011;3010;51.028;4.170;2023-03-01T08:34:06;13.30;;;11.23;;
5967;SDS011;3010;51.028;4.170;2023-03-01T08:36:33;12.43;;;9.77;;
5967;SDS011;3010;51.028;4.170;2023-03-01T08:39:00;13.43;;;10.75;;
5967;SDS011;3010;51.028;4.170;2023-03-01T08:41:27;14.70;;;10.80;;
5967;SDS011;3010;51.028;4.170;2023-03-01T08:43:54;11.20;;;9.97;;
5967;SDS011;3010;51.028;4.170;2023-03-01T08:46:20;11.63;;;9.67;;
5967;SDS011;3010;51.028;4.170;2023-03-01T08:48:47;14.87;;;10.67;;
5967;SDS011;3010;51.028;4.170;2023-03-01T08:51:14;11.98;;;10.75;;
5967;SDS011;3010;51.028;4.170;2023-03-01T08:53:40;13.77;;;9.87;;
5967;SDS011;3010;51.028;4.170;2023-03-01T08:56:07;11.90;;;9.60;;
5967;SDS011;3010;51.028;4.170;2023-03-01T08:58:33;13.37;;;9.77;;
5967;SDS011;3010;51.028;4.170;2023-03-01T09:01:00;9.80;;;8.80;;
5967;SDS011;3010;51.028;4.170;2023-03-01T09:03:26;11.77;;;10.23;;
5967;SDS011;3010;51.028;4.170;2023-03-01T09:05:53;12.17;;;9.90;;
5967;SDS011;3010;51.028;4.170;2023-03-01T09:08:20;13.50;;;10.93;;
5967;SDS011;3010;51.028;4.170;2023-03-01T09:10:46;15.33;;;11.10;;
5967;SDS011;3010;51.028;4.170;2023-03-01T09:13:13;13.57;;;10.00;;
5967;SDS011;3010;51.028;4.170;2023-03-01T09:15:39;12.73;;;9.83;;
5967;SDS011;3010;51.028;4.170;2023-03-01T09:18:06;12.10;;;9.50;;
5967;SDS011;3010;51.028;4.170;2023-03-01T09:20:32;13.63;;;9.63;;
5967;SDS011;3010;51.028;4.170;2023-03-01T09:22:59;11.20;;;8.73;;
5967;SDS011;3010;51.028;4.170;2023-03-01T09:25:26;9.87;;;8.63;;
5967;SDS011;3010;51.028;4.170;2023-03-01T09:27:53;12.93;;;8.10;;
5967;SDS011;3010;51.028;4.170;2023-03-01T09:30:19;14.98;;;11.45;;
5967;SDS011;3010;51.028;4.170;2023-03-01T09:32:45;10.47;;;9.37;;
5967;SDS011;3010;51.028;4.170;2023-03-01T09:35:12;14.13;;;9.80;;
5967;SDS011;3010;51.028;4.170;2023-03-01T09:37:38;11.67;;;8.47;;
5967;SDS011;3010;51.028;4.170;2023-03-01T09:40:06;12.83;;;9.10;;
5967;SDS011;3010;51.028;4.170;2023-03-01T09:42:32;16.87;;;11.12;;
5967;SDS011;3010;51.028;4.170;2023-03-01T09:45:45;13.45;;;10.88;;
5967;SDS011;3010;51.028;4.170;2023-03-01T09:47:29;12.10;;;10.20;;
5967;SDS011;3010;51.028;4.170;2023-03-01T09:52:40;10.30;;;8.97;;
5967;SDS011;3010;51.028;4.170;2023-03-01T09:55:25;10.53;;;9.40;;
5967;SDS011;3010;51.028;4.170;2023-03-01T09:57:50;13.82;;;10.73;;
5967;SDS011;3010;51.028;4.170;2023-03-01T10:00:25;15.83;;;10.00;;
5967;SDS011;3010;51.028;4.170;2023-03-01T10:03:15;11.73;;;9.03;;
5967;SDS011;3010;51.028;4.170;2023-03-01T10:11:14;11.00;;;9.57;;
5967;SDS011;3010;51.028;4.170;2023-03-01T10:13:40;13.25;;;11.15;;
5967;SDS011;3010;51.028;4.170;2023-03-01T10:16:12;13.20;;;9.83;;
5967;SDS011;3010;51.028;4.170;2023-03-01T10:18:38;13.07;;;9.40;;
5967;SDS011;3010;51.028;4.170;2023-03-01T10:21:12;12.27;;;9.73;;
5967;SDS011;3010;51.028;4.170;2023-03-01T10:23:34;9.33;;;8.27;;
5967;SDS011;3010;51.028;4.170;2023-03-01T10:28:44;12.67;;;9.10;;
5967;SDS011;3010;51.028;4.170;2023-03-01T10:31:32;12.90;;;8.57;;
5967;SDS011;3010;51.028;4.170;2023-03-01T10:33:53;11.53;;;9.03;;
5967;SDS011;3010;51.028;4.170;2023-03-01T10:36:20;13.70;;;10.10;;
5967;SDS011;3010;51.028;4.170;2023-03-01T10:38:48;12.97;;;9.80;;
5967;SDS011;3010;51.028;4.170;2023-03-01T10:41:16;11.60;;;10.20;;
5967;SDS011;3010;51.028;4.170;2023-03-01T10:43:44;9.93;;;8.93;;
5967;SDS011;3010;51.028;4.170;2023-03-01T10:46:31;9.00;;;7.93;;
5967;SDS011;3010;51.028;4.170;2023-03-01T10:51:48;10.07;;;8.30;;
5967;SDS011;3010;51.028;4.170;2023-03-01T10:54:35;10.55;;;9.55;;
5967;SDS011;3010;51.028;4.170;2023-03-01T10:56:59;11.03;;;8.83;;
5967;SDS011;3010;51.028;4.170;2023-03-01T10:59:35;12.50;;;8.40;;
5967;SDS011;3010;51.028;4.170;2023-03-01T11:02:17;10.33;;;8.23;;
5967;SDS011;3010;51.028;4.170;2023-03-01T11:07:26;10.27;;;8.50;;
5967;SDS011;3010;51.028;4.170;2023-03-01T11:09:53;9.80;;;8.60;;
5967;SDS011;3010;51.028;4.170;2023-03-01T11:12:20;11.33;;;7.97;;
5967;SDS011;3010;51.028;4.170;2023-03-01T11:14:49;9.50;;;6.77;;
5967;SDS011;3010;51.028;4.170;2023-03-01T11:19:59;10.40;;;8.67;;
5967;SDS011;3010;51.028;4.170;2023-03-01T11:22:25;9.53;;;7.70;;
5967;SDS011;3010;51.028;4.170;2023-03-01T11:24:53;9.70;;;8.70;;
5967;SDS011;3010;51.028;4.170;2023-03-01T11:29:55;10.10;;;7.97;;
5967;SDS011;3010;51.028;4.170;2023-03-01T11:32:21;10.37;;;8.93;;
5967;SDS011;3010;51.028;4.170;2023-03-01T11:40:19;13.23;;;9.03;;
5967;SDS011;3010;51.028;4.170;2023-03-01T11:45:15;9.20;;;8.30;;
5967;SDS011;3010;51.028;4.170;2023-03-01T11:50:14;9.13;;;8.23;;
5967;SDS011;3010;51.028;4.170;2023-03-01T11:55:30;8.90;;;8.03;;
5967;SDS011;3010;51.028;4.170;2023-03-01T12:00:43;11.27;;;8.77;;
5967;SDS011;3010;51.028;4.170;2023-03-01T12:06:01;10.13;;;8.13;;
5967;SDS011;3010;51.028;4.170;2023-03-01T12:08:24;9.43;;;8.10;;
5967;SDS011;3010;51.028;4.170;2023-03-01T12:26:47;9.57;;;7.60;;
5967;SDS011;3010;51.028;4.170;2023-03-01T12:29:29;8.60;;;7.80;;
5967;SDS011;3010;51.028;4.170;2023-03-01T12:31:59;9.83;;;8.50;;
5967;SDS011;3010;51.028;4.170;2023-03-01T12:37:27;8.73;;;7.83;;
5967;SDS011;3010;51.028;4.170;2023-03-01T12:39:59;6.30;;;5.67;;
5967;SDS011;3010;51.028;4.170;2023-03-01T12:43:25;10.07;;;8.10;;
5967;SDS011;3010;51.028;4.170;2023-03-01T12:50:54;9.67;;;8.67;;
5967;SDS011;3010;51.028;4.170;2023-03-01T12:53:22;14.13;;;8.77;;
5967;SDS011;3010;51.028;4.170;2023-03-01T12:55:49;10.00;;;9.00;;
5967;SDS011;3010;51.028;4.170;2023-03-01T12:58:28;10.27;;;8.57;;
5967;SDS011;3010;51.028;4.170;2023-03-01T13:06:41;9.88;;;8.88;;
5967;SDS011;3010;51.028;4.170;2023-03-01T13:09:16;8.63;;;7.53;;
5967;SDS011;3010;51.028;4.170;2023-03-01T13:11:43;9.77;;;8.23;;
5967;SDS011;3010;51.028;4.170;2023-03-01T13:16:48;8.47;;;6.90;;
5967;SDS011;3010;51.028;4.170;2023-03-01T13:19:18;9.67;;;8.17;;
5967;SDS011;3010;51.028;4.170;2023-03-01T13:21:44;10.53;;;7.40;;
5967;SDS011;3010;51.028;4.170;2023-03-01T13:24:27;7.83;;;7.23;;
5967;SDS011;3010;51.028;4.170;2023-03-01T13:29:57;9.32;;;8.45;;
5967;SDS011;3010;51.028;4.170;2023-03-01T13:37:28;8.33;;;7.60;;
5967;SDS011;3010;51.028;4.170;2023-03-01T13:39:53;9.30;;;8.48;;
5967;SDS011;3010;51.028;4.170;2023-03-01T13:42:54;9.33;;;8.43;;
5967;SDS011;3010;51.028;4.170;2023-03-01T13:44:58;8.23;;;7.50;;
5967;SDS011;3010;51.028;4.170;2023-03-01T13:47:25;9.50;;;8.50;;
5967;SDS011;3010;51.028;4.170;2023-03-01T13:50:00;9.47;;;8.33;;
5967;SDS011;3010;51.028;4.170;2023-03-01T13:52:30;8.57;;;7.63;;
5967;SDS011;3010;51.028;4.170;2023-03-01T13:54:53;10.32;;;9.02;;
5967;SDS011;3010;51.028;4.170;2023-03-01T13:57:21;8.80;;;7.67;;
5967;SDS011;3010;51.028;4.170;2023-03-01T13:59:49;8.13;;;7.33;;
5967;SDS011;3010;51.028;4.170;2023-03-01T14:02:15;7.73;;;7.03;;
5967;SDS011;3010;51.028;4.170;2023-03-01T14:04:42;8.80;;;7.13;;
5967;SDS011;3010;51.028;4.170;2023-03-01T14:07:10;9.57;;;8.68;;
5967;SDS011;3010;51.028;4.170;2023-03-01T14:09:36;8.37;;;7.57;;
5967;SDS011;3010;51.028;4.170;2023-03-01T14:12:05;7.63;;;6.67;;
5967;SDS011;3010;51.028;4.170;2023-03-01T14:19:55;9.27;;;7.33;;
5967;SDS011;3010;51.028;4.170;2023-03-01T14:22:20;9.53;;;6.87;;
5967;SDS011;3010;51.028;4.170;2023-03-01T14:25:02;9.00;;;8.20;;
5967;SDS011;3010;51.028;4.170;2023-03-01T14:27:29;8.93;;;7.27;;
5967;SDS011;3010;51.028;4.170;2023-03-01T14:29:58;7.83;;;7.13;;
5967;SDS011;3010;51.028;4.170;2023-03-01T14:32:28;8.13;;;7.43;;
5967;SDS011;3010;51.028;4.170;2023-03-01T14:34:54;8.88;;;8.07;;
5967;SDS011;3010;51.028;4.170;2023-03-01T14:37:24;7.43;;;6.73;;
5967;SDS011;3010;51.028;4.170;2023-03-01T14:39:51;7.73;;;7.03;;
5967;SDS011;3010;51.028;4.170;2023-03-01T14:42:17;8.30;;;7.50;;
5967;SDS011;3010;51.028;4.170;2023-03-01T14:44:45;9.93;;;7.47;;
5967;SDS011;3010;51.028;4.170;2023-03-01T14:47:22;8.10;;;7.40;;
5967;SDS011;3010;51.028;4.170;2023-03-01T14:49:46;10.80;;;7.23;;
5967;SDS011;3010;51.028;4.170;2023-03-01T14:52:22;8.93;;;7.10;;
5967;SDS011;3010;51.028;4.170;2023-03-01T14:54:53;13.10;;;8.50;;
5967;SDS011;3010;51.028;4.170;2023-03-01T14:57:24;8.87;;;6.07;;
5967;SDS011;3010;51.028;4.170;2023-03-01T14:59:50;9.60;;;8.70;;
5967;SDS011;3010;51.028;4.170;2023-03-01T15:02:20;8.75;;;8.05;;
5967;SDS011;3010;51.028;4.170;2023-03-01T15:04:52;8.70;;;7.23;;
5967;SDS011;3010;51.028;4.170;2023-03-01T15:07:18;11.57;;;7.57;;
5967;SDS011;3010;51.028;4.170;2023-03-01T15:09:45;8.70;;;7.33;;
5967;SDS011;3010;51.028;4.170;2023-03-01T15:12:31;8.47;;;7.73;;
5967;SDS011;3010;51.028;4.170;2023-03-01T15:14:53;8.43;;;7.63;;
5967;SDS011;3010;51.028;4.170;2023-03-01T15:19:56;9.83;;;7.67;;
5967;SDS011;3010;51.028;4.170;2023-03-01T15:22:23;8.40;;;7.00;;
5967;SDS011;3010;51.028;4.170;2023-03-01T15:24:49;10.50;;;7.23;;
5967;SDS011;3010;51.028;4.170;2023-03-01T15:27:16;7.53;;;6.83;;
5967;SDS011;3010;51.028;4.170;2023-03-01T15:29:42;9.40;;;7.53;;
5967;SDS011;3010;51.028;4.170;2023-03-01T15:35:00;8.37;;;7.57;;
5967;SDS011;3010;51.028;4.170;2023-03-01T15:37:37;8.90;;;7.70;;
5967;SDS011;3010;51.028;4.170;2023-03-01T15:40:01;10.67;;;7.17;;
5967;SDS011;3010;51.028;4.170;2023-03-01T15:45:07;8.43;;;7.63;;
5967;SDS011;3010;51.028;4.170;2023-03-01T15:47:33;8.43;;;7.60;;
5967;SDS011;3010;51.028;4.170;2023-03-01T15:50:00;10.80;;;7.80;;
5967;SDS011;3010;51.028;4.170;2023-03-01T15:52:27;8.73;;;7.83;;
5967;SDS011;3010;51.028;4.170;2023-03-01T15:54:53;11.68;;;8.43;;
5967;SDS011;3010;51.028;4.170;2023-03-01T15:57:19;9.13;;;7.73;;
5967;SDS011;3010;51.028;4.170;2023-03-01T15:59:46;9.23;;;7.73;;
5967;SDS011;3010;51.028;4.170;2023-03-01T16:02:13;8.33;;;7.40;;
5967;SDS011;3010;51.028;4.170;2023-03-01T16:04:39;12.57;;;7.37;;
5967;SDS011;3010;51.028;4.170;2023-03-01T16:07:06;7.80;;;7.03;;
5967;SDS011;3010;51.028;4.170;2023-03-01T16:09:32;8.50;;;7.70;;
5967;SDS011;3010;51.028;4.170;2023-03-01T16:11:59;10.33;;;7.27;;
5967;SDS011;3010;51.028;4.170;2023-03-01T16:14:25;8.30;;;7.07;;
5967;SDS011;3010;51.028;4.170;2023-03-01T16:16:52;12.80;;;9.50;;
5967;SDS011;3010;51.028;4.170;2023-03-01T16:19:19;9.47;;;8.30;;
5967;SDS011;3010;51.028;4.170;2023-03-01T16:21:45;9.13;;;8.23;;
5967;SDS011;3010;51.028;4.170;2023-03-01T16:24:12;9.23;;;8.37;;
5967;SDS011;3010;51.028;4.170;2023-03-01T16:26:41;8.77;;;7.90;;
5967;SDS011;3010;51.028;4.170;2023-03-01T16:29:07;10.03;;;8.27;;
5967;SDS011;3010;51.028;4.170;2023-03-01T16:31:34;8.47;;;7.67;;
5967;SDS011;3010;51.028;4.170;2023-03-01T16:34:01;9.30;;;8.40;;
5967;SDS011;3010;51.028;4.170;2023-03-01T16:36:27;10.17;;;8.37;;
5967;SDS011;3010;51.028;4.170;2023-03-01T16:38:54;10.80;;;9.30;;
5967;SDS011;3010;51.028;4.170;2023-03-01T16:41:21;10.47;;;8.93;;
5967;SDS011;3010;51.028;4.170;2023-03-01T16:43:47;11.18;;;9.85;;
5967;SDS011;3010;51.028;4.170;2023-03-01T16:46:15;10.80;;;9.70;;
5967;SDS011;3010;51.028;4.170;2023-03-01T16:48:41;10.82;;;9.27;;
5967;SDS011;3010;51.028;4.170;2023-03-01T16:51:07;10.30;;;9.30;;